sensor_id;sensor_type;location;lat;lon;timestamp;temperature;humidity
30280;DHT22;17097;50.916;5.344;2022-08-01T00:01:04;22.90;99.90
30280;DHT22;17097;50.916;5.344;2022-08-01T00:03:30;22.80;99.90
30280;DHT22;17097;50.916;5.344;2022-08-01T00:05:56;22.80;99.90
30280;DHT22;17097;50.916;5.344;2022-08-01T00:08:21;22.70;99.90
30280;DHT22;17097;50.916;5.344;2022-08-01T00:10:47;22.80;99.90
30280;DHT22;17097;50.916;5.344;2022-08-01T00:13:13;22.70;99.90
30280;DHT22;17097;50.916;5.344;2022-08-01T00:15:38;22.70;99.90
30280;DHT22;17097;50.916;5.344;2022-08-01T00:18:04;22.70;99.90
30280;DHT22;17097;50.916;5.344;2022-08-01T00:20:30;22.70;99.90
30280;DHT22;17097;50.916;5.344;2022-08-01T00:22:55;22.60;99.90
30280;DHT22;17097;50.916;5.344;2022-08-01T00:25:21;22.50;99.90
30280;DHT22;17097;50.916;5.344;2022-08-01T00:27:46;22.60;99.90
30280;DHT22;17097;50.916;5.344;2022-08-01T00:30:12;22.70;99.90
30280;DHT22;17097;50.916;5.344;2022-08-01T00:32:38;22.70;99.90
30280;DHT22;17097;50.916;5.344;2022-08-01T00:35:04;22.70;99.90
30280;DHT22;17097;50.916;5.344;2022-08-01T00:37:29;22.70;99.90
30280;DHT22;17097;50.916;5.344;2022-08-01T00:39:55;22.60;99.90
30280;DHT22;17097;50.916;5.344;2022-08-01T00:42:20;22.50;99.90
30280;DHT22;17097;50.916;5.344;2022-08-01T00:44:46;22.50;99.90
30280;DHT22;17097;50.916;5.344;2022-08-01T00:47:12;22.40;99.90
30280;DHT22;17097;50.916;5.344;2022-08-01T00:49:37;22.40;99.90
30280;DHT22;17097;50.916;5.344;2022-08-01T00:52:05;22.40;99.90
30280;DHT22;17097;50.916;5.344;2022-08-01T00:54:31;22.40;99.90
30280;DHT22;17097;50.916;5.344;2022-08-01T00:56:58;22.50;99.90
30280;DHT22;17097;50.916;5.344;2022-08-01T00:59:24;22.50;99.90
30280;DHT22;17097;50.916;5.344;2022-08-01T01:01:50;22.50;99.90
30280;DHT22;17097;50.916;5.344;2022-08-01T01:04:16;22.50;99.90
30280;DHT22;17097;50.916;5.344;2022-08-01T01:09:50;22.20;99.90
30280;DHT22;17097;50.916;5.344;2022-08-01T01:17:32;22.30;99.90
30280;DHT22;17097;50.916;5.344;2022-08-01T01:20:01;22.20;99.90
30280;DHT22;17097;50.916;5.344;2022-08-01T01:28:33;22.30;99.90
30280;DHT22;17097;50.916;5.344;2022-08-01T01:30:59;22.30;99.90
30280;DHT22;17097;50.916;5.344;2022-08-01T01:33:27;22.20;99.90
30280;DHT22;17097;50.916;5.344;2022-08-01T01:36:01;22.30;99.90
30280;DHT22;17097;50.916;5.344;2022-08-01T01:38:32;22.20;99.90
30280;DHT22;17097;50.916;5.344;2022-08-01T01:41:00;22.20;99.90
30280;DHT22;17097;50.916;5.344;2022-08-01T01:43:29;22.20;99.90
30280;DHT22;17097;50.916;5.344;2022-08-01T01:45:55;22.30;99.90
30280;DHT22;17097;50.916;5.344;2022-08-01T01:48:23;22.40;99.90
30280;DHT22;17097;50.916;5.344;2022-08-01T01:50:51;22.30;99.90
30280;DHT22;17097;50.916;5.344;2022-08-01T01:53:19;22.30;99.90
30280;DHT22;17097;50.916;5.344;2022-08-01T01:55:46;22.30;99.90
30280;DHT22;17097;50.916;5.344;2022-08-01T01:58:15;22.40;99.90
30280;DHT22;17097;50.916;5.344;2022-08-01T02:00:42;22.30;99.90
30280;DHT22;17097;50.916;5.344;2022-08-01T02:03:10;22.30;99.90
30280;DHT22;17097;50.916;5.344;2022-08-01T02:05:36;22.40;99.90
30280;DHT22;17097;50.916;5.344;2022-08-01T02:08:04;22.40;99.90
30280;DHT22;17097;50.916;5.344;2022-08-01T02:10:31;22.50;99.90
30280;DHT22;17097;50.916;5.344;2022-08-01T02:12:59;22.50;99.90
30280;DHT22;17097;50.916;5.344;2022-08-01T02:15:30;22.40;99.90
30280;DHT22;17097;50.916;5.344;2022-08-01T02:17:56;22.50;99.90
30280;DHT22;17097;50.916;5.344;2022-08-01T02:20:24;22.40;99.90
30280;DHT22;17097;50.916;5.344;2022-08-01T02:23:07;22.40;99.90
30280;DHT22;17097;50.916;5.344;2022-08-01T02:25:42;22.30;99.90
30280;DHT22;17097;50.916;5.344;2022-08-01T02:28:11;22.30;99.90
30280;DHT22;17097;50.916;5.344;2022-08-01T02:30:43;22.40;99.90
30280;DHT22;17097;50.916;5.344;2022-08-01T02:33:18;22.40;99.90
30280;DHT22;17097;50.916;5.344;2022-08-01T02:35:50;22.60;99.90
30280;DHT22;17097;50.916;5.344;2022-08-01T02:38:17;22.50;99.90
30280;DHT22;17097;50.916;5.344;2022-08-01T02:40:45;22.50;99.90
30280;DHT22;17097;50.916;5.344;2022-08-01T02:43:17;22.30;99.90
30280;DHT22;17097;50.916;5.344;2022-08-01T02:45:49;22.30;99.90
30280;DHT22;17097;50.916;5.344;2022-08-01T02:48:18;22.10;99.90
30280;DHT22;17097;50.916;5.344;2022-08-01T02:50:48;22.20;99.90
30280;DHT22;17097;50.916;5.344;2022-08-01T02:53:16;22.10;99.90
30280;DHT22;17097;50.916;5.344;2022-08-01T02:55:44;22.20;99.90
30280;DHT22;17097;50.916;5.344;2022-08-01T02:58:16;22.40;99.90
30280;DHT22;17097;50.916;5.344;2022-08-01T03:00:45;22.30;99.90
30280;DHT22;17097;50.916;5.344;2022-08-01T03:03:11;22.30;99.90
30280;DHT22;17097;50.916;5.344;2022-08-01T03:05:37;22.40;99.90
30280;DHT22;17097;50.916;5.344;2022-08-01T03:08:06;22.30;99.90
30280;DHT22;17097;50.916;5.344;2022-08-01T03:10:33;22.10;99.90
30280;DHT22;17097;50.916;5.344;2022-08-01T03:13:00;22.00;99.90
30280;DHT22;17097;50.916;5.344;2022-08-01T03:15:27;22.00;99.90
30280;DHT22;17097;50.916;5.344;2022-08-01T03:17:57;21.90;99.90
30280;DHT22;17097;50.916;5.344;2022-08-01T03:20:25;21.70;99.90
30280;DHT22;17097;50.916;5.344;2022-08-01T03:22:52;21.70;99.90
30280;DHT22;17097;50.916;5.344;2022-08-01T03:25:19;21.80;99.90
30280;DHT22;17097;50.916;5.344;2022-08-01T03:27:54;21.80;99.90
30280;DHT22;17097;50.916;5.344;2022-08-01T03:30:23;21.90;99.90
30280;DHT22;17097;50.916;5.344;2022-08-01T03:32:49;21.90;99.90
30280;DHT22;17097;50.916;5.344;2022-08-01T03:35:15;21.80;99.90
30280;DHT22;17097;50.916;5.344;2022-08-01T03:37:42;21.90;99.90
30280;DHT22;17097;50.916;5.344;2022-08-01T03:40:16;21.90;99.90
30280;DHT22;17097;50.916;5.344;2022-08-01T03:42:46;22.00;99.90
30280;DHT22;17097;50.916;5.344;2022-08-01T03:45:20;22.00;99.90
30280;DHT22;17097;50.916;5.344;2022-08-01T03:47:49;22.00;99.90
30280;DHT22;17097;50.916;5.344;2022-08-01T03:50:20;21.90;99.90
30280;DHT22;17097;50.916;5.344;2022-08-01T03:52:48;22.00;99.90
30280;DHT22;17097;50.916;5.344;2022-08-01T03:55:15;22.20;99.90
30280;DHT22;17097;50.916;5.344;2022-08-01T03:57:42;22.00;99.90
30280;DHT22;17097;50.916;5.344;2022-08-01T04:00:09;22.10;99.90
30280;DHT22;17097;50.916;5.344;2022-08-01T04:02:36;22.30;99.90
30280;DHT22;17097;50.916;5.344;2022-08-01T04:05:03;22.20;99.90
30280;DHT22;17097;50.916;5.344;2022-08-01T04:07:31;22.20;99.90
30280;DHT22;17097;50.916;5.344;2022-08-01T04:09:57;22.10;99.90
30280;DHT22;17097;50.916;5.344;2022-08-01T04:12:24;22.20;99.90
30280;DHT22;17097;50.916;5.344;2022-08-01T04:14:50;22.20;99.90
30280;DHT22;17097;50.916;5.344;2022-08-01T04:17:16;22.10;99.90
30280;DHT22;17097;50.916;5.344;2022-08-01T04:19:42;22.00;99.90
30280;DHT22;17097;50.916;5.344;2022-08-01T04:22:10;21.90;99.90
30280;DHT22;17097;50.916;5.344;2022-08-01T04:24:37;21.90;99.90
30280;DHT22;17097;50.916;5.344;2022-08-01T04:27:09;21.90;99.90
30280;DHT22;17097;50.916;5.344;2022-08-01T04:29:37;21.90;99.90
30280;DHT22;17097;50.916;5.344;2022-08-01T04:32:05;21.90;99.90
30280;DHT22;17097;50.916;5.344;2022-08-01T04:34:33;21.90;99.90
30280;DHT22;17097;50.916;5.344;2022-08-01T04:37:00;21.90;99.90
30280;DHT22;17097;50.916;5.344;2022-08-01T04:39:29;21.80;99.90
30280;DHT22;17097;50.916;5.344;2022-08-01T04:41:58;21.90;99.90
30280;DHT22;17097;50.916;5.344;2022-08-01T04:44:24;21.90;99.90
30280;DHT22;17097;50.916;5.344;2022-08-01T04:46:50;21.80;99.90
30280;DHT22;17097;50.916;5.344;2022-08-01T04:49:20;21.90;99.90
30280;DHT22;17097;50.916;5.344;2022-08-01T04:51:50;21.90;99.90
30280;DHT22;17097;50.916;5.344;2022-08-01T04:54:16;21.90;99.90
30280;DHT22;17097;50.916;5.344;2022-08-01T04:56:42;22.10;99.90
30280;DHT22;17097;50.916;5.344;2022-08-01T04:59:07;22.00;99.90
30280;DHT22;17097;50.916;5.344;2022-08-01T05:01:51;22.00;99.90
30280;DHT22;17097;50.916;5.344;2022-08-01T05:04:17;21.90;99.90
30280;DHT22;17097;50.916;5.344;2022-08-01T05:06:42;22.00;99.90
30280;DHT22;17097;50.916;5.344;2022-08-01T05:09:08;22.00;99.90
30280;DHT22;17097;50.916;5.344;2022-08-01T05:11:34;21.90;99.90
30280;DHT22;17097;50.916;5.344;2022-08-01T05:13:59;21.80;99.90
30280;DHT22;17097;50.916;5.344;2022-08-01T05:16:25;22.00;99.90
30280;DHT22;17097;50.916;5.344;2022-08-01T05:18:51;22.00;99.90
30280;DHT22;17097;50.916;5.344;2022-08-01T05:21:17;22.00;99.90
30280;DHT22;17097;50.916;5.344;2022-08-01T05:23:43;22.00;99.90
30280;DHT22;17097;50.916;5.344;2022-08-01T05:26:12;22.00;99.90
30280;DHT22;17097;50.916;5.344;2022-08-01T05:28:39;21.90;99.90
30280;DHT22;17097;50.916;5.344;2022-08-01T05:31:04;22.00;99.90
30280;DHT22;17097;50.916;5.344;2022-08-01T05:33:30;21.90;99.90
30280;DHT22;17097;50.916;5.344;2022-08-01T05:35:55;21.80;99.90
30280;DHT22;17097;50.916;5.344;2022-08-01T05:38:21;21.90;99.90
30280;DHT22;17097;50.916;5.344;2022-08-01T05:40:47;21.90;99.90
30280;DHT22;17097;50.916;5.344;2022-08-01T05:43:12;21.90;99.90
30280;DHT22;17097;50.916;5.344;2022-08-01T05:45:38;21.90;99.90
30280;DHT22;17097;50.916;5.344;2022-08-01T05:48:04;22.00;99.90
30280;DHT22;17097;50.916;5.344;2022-08-01T05:50:29;22.00;99.90
30280;DHT22;17097;50.916;5.344;2022-08-01T05:52:55;21.90;99.90
30280;DHT22;17097;50.916;5.344;2022-08-01T05:55:20;21.90;99.90
30280;DHT22;17097;50.916;5.344;2022-08-01T05:57:46;21.80;99.90
30280;DHT22;17097;50.916;5.344;2022-08-01T06:00:12;21.80;99.90
30280;DHT22;17097;50.916;5.344;2022-08-01T06:02:40;21.70;99.90
30280;DHT22;17097;50.916;5.344;2022-08-01T06:05:07;21.70;99.90
30280;DHT22;17097;50.916;5.344;2022-08-01T06:07:32;21.70;99.90
30280;DHT22;17097;50.916;5.344;2022-08-01T06:09:58;21.70;99.90
30280;DHT22;17097;50.916;5.344;2022-08-01T06:12:23;21.40;99.90
30280;DHT22;17097;50.916;5.344;2022-08-01T06:14:49;21.50;99.90
30280;DHT22;17097;50.916;5.344;2022-08-01T06:17:15;21.40;99.90
30280;DHT22;17097;50.916;5.344;2022-08-01T06:19:40;21.30;99.90
30280;DHT22;17097;50.916;5.344;2022-08-01T06:22:06;21.60;99.90
30280;DHT22;17097;50.916;5.344;2022-08-01T06:24:31;21.50;99.90
30280;DHT22;17097;50.916;5.344;2022-08-01T06:26:57;21.40;99.90
30280;DHT22;17097;50.916;5.344;2022-08-01T06:29:23;21.40;99.90
30280;DHT22;17097;50.916;5.344;2022-08-01T06:31:48;21.30;99.90
30280;DHT22;17097;50.916;5.344;2022-08-01T06:34:14;21.20;99.90
30280;DHT22;17097;50.916;5.344;2022-08-01T06:36:40;21.30;99.90
30280;DHT22;17097;50.916;5.344;2022-08-01T06:39:06;21.40;99.90
30280;DHT22;17097;50.916;5.344;2022-08-01T06:41:32;21.50;99.90
30280;DHT22;17097;50.916;5.344;2022-08-01T06:43:57;21.50;99.90
30280;DHT22;17097;50.916;5.344;2022-08-01T06:46:25;21.50;99.90
30280;DHT22;17097;50.916;5.344;2022-08-01T06:48:50;21.50;99.90
30280;DHT22;17097;50.916;5.344;2022-08-01T06:51:16;21.60;99.90
30280;DHT22;17097;50.916;5.344;2022-08-01T06:53:45;21.70;99.90
30280;DHT22;17097;50.916;5.344;2022-08-01T06:56:11;21.90;99.90
30280;DHT22;17097;50.916;5.344;2022-08-01T06:58:37;22.20;99.90
30280;DHT22;17097;50.916;5.344;2022-08-01T07:01:04;22.00;99.90
30280;DHT22;17097;50.916;5.344;2022-08-01T07:03:34;22.10;99.90
30280;DHT22;17097;50.916;5.344;2022-08-01T07:05:59;22.00;99.90
30280;DHT22;17097;50.916;5.344;2022-08-01T07:08:25;22.00;99.90
30280;DHT22;17097;50.916;5.344;2022-08-01T07:10:51;22.00;99.90
30280;DHT22;17097;50.916;5.344;2022-08-01T07:13:16;22.20;99.90
30280;DHT22;17097;50.916;5.344;2022-08-01T07:15:46;22.10;99.90
30280;DHT22;17097;50.916;5.344;2022-08-01T07:18:12;22.10;99.90
30280;DHT22;17097;50.916;5.344;2022-08-01T07:20:38;22.30;99.90
30280;DHT22;17097;50.916;5.344;2022-08-01T07:23:04;22.60;99.90
30280;DHT22;17097;50.916;5.344;2022-08-01T07:25:29;22.60;99.90
30280;DHT22;17097;50.916;5.344;2022-08-01T07:27:55;22.80;99.90
30280;DHT22;17097;50.916;5.344;2022-08-01T07:30:21;22.70;99.90
30280;DHT22;17097;50.916;5.344;2022-08-01T07:32:46;22.70;99.90
30280;DHT22;17097;50.916;5.344;2022-08-01T07:35:12;22.80;99.90
30280;DHT22;17097;50.916;5.344;2022-08-01T07:37:38;22.90;99.90
30280;DHT22;17097;50.916;5.344;2022-08-01T07:40:04;22.80;99.90
30280;DHT22;17097;50.916;5.344;2022-08-01T07:42:31;22.80;99.90
30280;DHT22;17097;50.916;5.344;2022-08-01T07:44:57;22.90;99.90
30280;DHT22;17097;50.916;5.344;2022-08-01T07:47:24;23.00;99.90
30280;DHT22;17097;50.916;5.344;2022-08-01T07:49:50;23.10;99.90
30280;DHT22;17097;50.916;5.344;2022-08-01T07:52:16;23.20;99.90
30280;DHT22;17097;50.916;5.344;2022-08-01T07:54:42;23.20;99.90
30280;DHT22;17097;50.916;5.344;2022-08-01T07:57:07;23.40;99.90
30280;DHT22;17097;50.916;5.344;2022-08-01T07:59:33;23.30;99.90
30280;DHT22;17097;50.916;5.344;2022-08-01T08:01:59;23.50;99.90
30280;DHT22;17097;50.916;5.344;2022-08-01T08:04:26;23.40;99.90
30280;DHT22;17097;50.916;5.344;2022-08-01T08:06:52;23.40;99.90
30280;DHT22;17097;50.916;5.344;2022-08-01T08:09:19;23.30;99.90
30280;DHT22;17097;50.916;5.344;2022-08-01T08:11:45;23.20;99.90
30280;DHT22;17097;50.916;5.344;2022-08-01T08:14:11;23.40;99.90
30280;DHT22;17097;50.916;5.344;2022-08-01T08:16:37;23.40;99.90
30280;DHT22;17097;50.916;5.344;2022-08-01T08:19:03;23.70;99.90
30280;DHT22;17097;50.916;5.344;2022-08-01T08:21:29;23.50;99.90
30280;DHT22;17097;50.916;5.344;2022-08-01T08:23:55;23.30;99.90
30280;DHT22;17097;50.916;5.344;2022-08-01T08:26:40;23.60;99.90
30280;DHT22;17097;50.916;5.344;2022-08-01T08:29:06;23.70;99.90
30280;DHT22;17097;50.916;5.344;2022-08-01T08:31:32;23.80;99.90
30280;DHT22;17097;50.916;5.344;2022-08-01T08:33:58;23.90;99.90
30280;DHT22;17097;50.916;5.344;2022-08-01T08:36:24;24.00;99.90
30280;DHT22;17097;50.916;5.344;2022-08-01T08:38:49;24.00;99.90
30280;DHT22;17097;50.916;5.344;2022-08-01T08:41:15;24.00;99.90
30280;DHT22;17097;50.916;5.344;2022-08-01T08:43:41;24.20;99.90
30280;DHT22;17097;50.916;5.344;2022-08-01T08:46:08;24.00;99.90
30280;DHT22;17097;50.916;5.344;2022-08-01T08:48:35;24.20;99.90
30280;DHT22;17097;50.916;5.344;2022-08-01T08:51:02;24.60;99.90
30280;DHT22;17097;50.916;5.344;2022-08-01T08:53:28;24.60;99.90
30280;DHT22;17097;50.916;5.344;2022-08-01T08:55:57;24.80;99.90
30280;DHT22;17097;50.916;5.344;2022-08-01T08:58:26;24.90;99.90
30280;DHT22;17097;50.916;5.344;2022-08-01T09:00:53;25.30;99.90
30280;DHT22;17097;50.916;5.344;2022-08-01T09:03:19;25.50;99.90
30280;DHT22;17097;50.916;5.344;2022-08-01T09:05:45;25.60;99.90
30280;DHT22;17097;50.916;5.344;2022-08-01T09:08:11;26.00;99.90
30280;DHT22;17097;50.916;5.344;2022-08-01T09:10:37;26.00;99.90
30280;DHT22;17097;50.916;5.344;2022-08-01T09:13:07;25.90;99.90
30280;DHT22;17097;50.916;5.344;2022-08-01T09:18:06;26.60;99.90
30280;DHT22;17097;50.916;5.344;2022-08-01T09:20:31;27.00;99.90
30280;DHT22;17097;50.916;5.344;2022-08-01T09:23:00;27.10;99.90
30280;DHT22;17097;50.916;5.344;2022-08-01T09:25:25;27.20;99.90
30280;DHT22;17097;50.916;5.344;2022-08-01T09:28:05;27.00;99.90
30280;DHT22;17097;50.916;5.344;2022-08-01T09:30:37;27.10;99.90
30280;DHT22;17097;50.916;5.344;2022-08-01T09:33:05;27.10;99.90
30280;DHT22;17097;50.916;5.344;2022-08-01T09:35:33;26.90;99.90
30280;DHT22;17097;50.916;5.344;2022-08-01T09:38:21;27.00;99.90
30280;DHT22;17097;50.916;5.344;2022-08-01T09:40:57;26.80;99.90
30280;DHT22;17097;50.916;5.344;2022-08-01T09:43:26;26.90;99.90
30280;DHT22;17097;50.916;5.344;2022-08-01T09:45:52;27.40;99.90
30280;DHT22;17097;50.916;5.344;2022-08-01T09:48:19;27.50;99.90
30280;DHT22;17097;50.916;5.344;2022-08-01T09:50:47;27.80;99.90
30280;DHT22;17097;50.916;5.344;2022-08-01T09:53:14;27.80;99.90
30280;DHT22;17097;50.916;5.344;2022-08-01T09:55:40;27.60;99.90
30280;DHT22;17097;50.916;5.344;2022-08-01T09:58:07;27.70;99.90
30280;DHT22;17097;50.916;5.344;2022-08-01T10:00:34;28.20;99.90
30280;DHT22;17097;50.916;5.344;2022-08-01T10:05:58;28.10;99.90
30280;DHT22;17097;50.916;5.344;2022-08-01T10:08:24;28.30;99.90
30280;DHT22;17097;50.916;5.344;2022-08-01T10:11:11;28.10;99.90
30280;DHT22;17097;50.916;5.344;2022-08-01T10:13:37;28.40;99.90
30280;DHT22;17097;50.916;5.344;2022-08-01T10:16:05;28.20;99.90
30280;DHT22;17097;50.916;5.344;2022-08-01T10:18:31;28.40;99.90
30280;DHT22;17097;50.916;5.344;2022-08-01T10:20:58;28.50;99.90
30280;DHT22;17097;50.916;5.344;2022-08-01T10:23:30;28.60;99.90
30280;DHT22;17097;50.916;5.344;2022-08-01T10:25:58;28.70;99.90
30280;DHT22;17097;50.916;5.344;2022-08-01T10:28:25;28.50;99.90
30280;DHT22;17097;50.916;5.344;2022-08-01T10:30:52;28.10;99.90
30280;DHT22;17097;50.916;5.344;2022-08-01T10:33:18;28.20;99.90
30280;DHT22;17097;50.916;5.344;2022-08-01T10:35:46;28.30;99.90
30280;DHT22;17097;50.916;5.344;2022-08-01T10:38:12;28.40;99.90
30280;DHT22;17097;50.916;5.344;2022-08-01T10:40:39;28.40;99.90
30280;DHT22;17097;50.916;5.344;2022-08-01T10:43:06;28.40;99.90
30280;DHT22;17097;50.916;5.344;2022-08-01T10:45:34;28.30;99.90
30280;DHT22;17097;50.916;5.344;2022-08-01T10:50:44;28.20;99.90
30280;DHT22;17097;50.916;5.344;2022-08-01T10:58:30;29.10;99.20
30280;DHT22;17097;50.916;5.344;2022-08-01T11:03:39;29.80;96.70
30280;DHT22;17097;50.916;5.344;2022-08-01T11:06:05;30.20;95.40
30280;DHT22;17097;50.916;5.344;2022-08-01T11:08:31;30.00;95.50
30280;DHT22;17097;50.916;5.344;2022-08-01T11:11:02;29.80;96.50
30280;DHT22;17097;50.916;5.344;2022-08-01T11:14:04;29.90;96.10
30280;DHT22;17097;50.916;5.344;2022-08-01T11:16:36;29.90;95.50
30280;DHT22;17097;50.916;5.344;2022-08-01T11:19:06;30.00;95.20
30280;DHT22;17097;50.916;5.344;2022-08-01T11:27:29;29.80;94.20
30280;DHT22;17097;50.916;5.344;2022-08-01T11:32:50;29.10;93.70
30280;DHT22;17097;50.916;5.344;2022-08-01T11:35:17;29.30;94.60
30280;DHT22;17097;50.916;5.344;2022-08-01T11:37:43;29.40;95.70
30280;DHT22;17097;50.916;5.344;2022-08-01T11:40:22;29.50;95.20
30280;DHT22;17097;50.916;5.344;2022-08-01T11:42:49;30.00;94.50
30280;DHT22;17097;50.916;5.344;2022-08-01T11:45:15;30.10;91.40
30280;DHT22;17097;50.916;5.344;2022-08-01T11:47:47;29.70;92.10
30280;DHT22;17097;50.916;5.344;2022-08-01T11:50:32;29.50;92.30
30280;DHT22;17097;50.916;5.344;2022-08-01T11:53:03;29.60;92.10
30280;DHT22;17097;50.916;5.344;2022-08-01T11:55:29;30.00;92.00
30280;DHT22;17097;50.916;5.344;2022-08-01T11:58:06;29.90;92.30
30280;DHT22;17097;50.916;5.344;2022-08-01T12:00:32;30.10;91.70
30280;DHT22;17097;50.916;5.344;2022-08-01T12:03:04;29.90;91.50
30280;DHT22;17097;50.916;5.344;2022-08-01T12:05:32;30.00;90.50
30280;DHT22;17097;50.916;5.344;2022-08-01T12:07:59;29.80;90.00
30280;DHT22;17097;50.916;5.344;2022-08-01T12:10:30;29.50;90.40
30280;DHT22;17097;50.916;5.344;2022-08-01T12:13:05;29.60;90.70
30280;DHT22;17097;50.916;5.344;2022-08-01T12:15:37;29.50;90.50
30280;DHT22;17097;50.916;5.344;2022-08-01T12:18:04;29.30;90.50
30280;DHT22;17097;50.916;5.344;2022-08-01T12:20:37;29.00;90.70
30280;DHT22;17097;50.916;5.344;2022-08-01T12:23:05;29.10;91.40
30280;DHT22;17097;50.916;5.344;2022-08-01T12:25:31;29.20;90.60
30280;DHT22;17097;50.916;5.344;2022-08-01T12:28:05;29.30;91.30
30280;DHT22;17097;50.916;5.344;2022-08-01T12:30:32;29.30;91.20
30280;DHT22;17097;50.916;5.344;2022-08-01T12:33:01;29.10;92.00
30280;DHT22;17097;50.916;5.344;2022-08-01T12:35:29;29.10;92.50
30280;DHT22;17097;50.916;5.344;2022-08-01T12:38:00;29.10;91.50
30280;DHT22;17097;50.916;5.344;2022-08-01T12:40:29;28.90;91.20
30280;DHT22;17097;50.916;5.344;2022-08-01T12:43:03;28.80;91.90
30280;DHT22;17097;50.916;5.344;2022-08-01T12:45:50;28.90;91.60
30280;DHT22;17097;50.916;5.344;2022-08-01T12:48:17;29.00;92.20
30280;DHT22;17097;50.916;5.344;2022-08-01T12:50:45;29.10;91.50
30280;DHT22;17097;50.916;5.344;2022-08-01T12:53:12;29.40;91.70
30280;DHT22;17097;50.916;5.344;2022-08-01T12:55:52;29.40;91.70
30280;DHT22;17097;50.916;5.344;2022-08-01T12:58:18;29.70;90.50
30280;DHT22;17097;50.916;5.344;2022-08-01T13:00:46;29.60;90.30
30280;DHT22;17097;50.916;5.344;2022-08-01T13:03:19;29.50;90.40
30280;DHT22;17097;50.916;5.344;2022-08-01T13:05:50;29.90;88.80
30280;DHT22;17097;50.916;5.344;2022-08-01T13:10:46;30.40;85.00
30280;DHT22;17097;50.916;5.344;2022-08-01T13:13:13;30.60;85.10
30280;DHT22;17097;50.916;5.344;2022-08-01T13:15:41;30.70;81.50
30280;DHT22;17097;50.916;5.344;2022-08-01T13:18:31;30.60;81.80
30280;DHT22;17097;50.916;5.344;2022-08-01T13:21:27;30.50;81.40
30280;DHT22;17097;50.916;5.344;2022-08-01T13:27:19;30.20;83.30
30280;DHT22;17097;50.916;5.344;2022-08-01T13:29:38;30.50;82.50
30280;DHT22;17097;50.916;5.344;2022-08-01T13:32:17;30.40;83.30
30280;DHT22;17097;50.916;5.344;2022-08-01T13:34:42;30.50;83.20
30280;DHT22;17097;50.916;5.344;2022-08-01T13:37:08;30.40;83.30
30280;DHT22;17097;50.916;5.344;2022-08-01T13:39:34;30.60;82.10
30280;DHT22;17097;50.916;5.344;2022-08-01T13:42:13;30.60;82.30
30280;DHT22;17097;50.916;5.344;2022-08-01T13:44:40;30.50;79.70
30280;DHT22;17097;50.916;5.344;2022-08-01T13:47:07;30.40;83.20
30280;DHT22;17097;50.916;5.344;2022-08-01T13:49:33;30.50;83.90
30280;DHT22;17097;50.916;5.344;2022-08-01T13:52:00;30.40;83.10
30280;DHT22;17097;50.916;5.344;2022-08-01T13:54:26;30.50;83.50
30280;DHT22;17097;50.916;5.344;2022-08-01T13:56:52;30.50;82.50
30280;DHT22;17097;50.916;5.344;2022-08-01T13:59:18;30.50;81.90
30280;DHT22;17097;50.916;5.344;2022-08-01T14:01:44;30.30;82.70
30280;DHT22;17097;50.916;5.344;2022-08-01T14:04:10;30.20;80.60
30280;DHT22;17097;50.916;5.344;2022-08-01T14:06:36;30.40;82.40
30280;DHT22;17097;50.916;5.344;2022-08-01T14:09:03;30.50;82.30
30280;DHT22;17097;50.916;5.344;2022-08-01T14:11:29;30.70;82.00
30280;DHT22;17097;50.916;5.344;2022-08-01T14:13:55;30.30;83.00
30280;DHT22;17097;50.916;5.344;2022-08-01T14:16:20;30.40;81.80
30280;DHT22;17097;50.916;5.344;2022-08-01T14:18:46;30.40;83.80
30280;DHT22;17097;50.916;5.344;2022-08-01T14:21:12;30.00;84.50
30280;DHT22;17097;50.916;5.344;2022-08-01T14:23:38;30.20;83.40
30280;DHT22;17097;50.916;5.344;2022-08-01T14:26:04;30.40;83.00
30280;DHT22;17097;50.916;5.344;2022-08-01T14:28:29;30.50;84.10
30280;DHT22;17097;50.916;5.344;2022-08-01T14:30:59;30.60;84.30
30280;DHT22;17097;50.916;5.344;2022-08-01T14:33:25;30.40;84.40
30280;DHT22;17097;50.916;5.344;2022-08-01T14:35:52;30.10;85.50
30280;DHT22;17097;50.916;5.344;2022-08-01T14:38:17;30.30;85.50
30280;DHT22;17097;50.916;5.344;2022-08-01T14:40:43;30.30;85.60
30280;DHT22;17097;50.916;5.344;2022-08-01T14:43:12;30.10;86.00
30280;DHT22;17097;50.916;5.344;2022-08-01T14:45:39;30.20;85.50
30280;DHT22;17097;50.916;5.344;2022-08-01T14:48:04;30.40;84.90
30280;DHT22;17097;50.916;5.344;2022-08-01T14:50:30;30.70;84.90
30280;DHT22;17097;50.916;5.344;2022-08-01T14:52:56;30.80;85.40
30280;DHT22;17097;50.916;5.344;2022-08-01T14:55:22;30.60;83.60
30280;DHT22;17097;50.916;5.344;2022-08-01T14:57:50;30.50;83.50
30280;DHT22;17097;50.916;5.344;2022-08-01T15:00:16;30.10;83.90
30280;DHT22;17097;50.916;5.344;2022-08-01T15:02:42;30.10;83.80
30280;DHT22;17097;50.916;5.344;2022-08-01T15:05:09;29.90;84.80
30280;DHT22;17097;50.916;5.344;2022-08-01T15:07:35;30.00;85.70
30280;DHT22;17097;50.916;5.344;2022-08-01T15:10:02;30.10;85.20
30280;DHT22;17097;50.916;5.344;2022-08-01T15:12:27;30.40;83.80
30280;DHT22;17097;50.916;5.344;2022-08-01T15:14:53;30.70;83.80
30280;DHT22;17097;50.916;5.344;2022-08-01T15:17:25;30.70;82.30
30280;DHT22;17097;50.916;5.344;2022-08-01T15:19:55;30.70;81.80
30280;DHT22;17097;50.916;5.344;2022-08-01T15:22:22;30.80;79.90
30280;DHT22;17097;50.916;5.344;2022-08-01T15:24:49;31.00;81.00
30280;DHT22;17097;50.916;5.344;2022-08-01T15:27:14;31.10;81.80
30280;DHT22;17097;50.916;5.344;2022-08-01T15:29:40;30.90;82.10
30280;DHT22;17097;50.916;5.344;2022-08-01T15:32:07;31.10;81.70
30280;DHT22;17097;50.916;5.344;2022-08-01T15:34:35;30.90;81.50
30280;DHT22;17097;50.916;5.344;2022-08-01T15:37:02;30.80;80.60
30280;DHT22;17097;50.916;5.344;2022-08-01T15:39:27;30.60;81.70
30280;DHT22;17097;50.916;5.344;2022-08-01T15:41:53;30.60;81.60
30280;DHT22;17097;50.916;5.344;2022-08-01T15:44:19;30.50;82.00
30280;DHT22;17097;50.916;5.344;2022-08-01T15:46:46;30.40;80.00
30280;DHT22;17097;50.916;5.344;2022-08-01T15:49:12;30.10;80.00
30280;DHT22;17097;50.916;5.344;2022-08-01T15:51:38;30.00;81.30
30280;DHT22;17097;50.916;5.344;2022-08-01T15:54:03;30.00;81.70
30280;DHT22;17097;50.916;5.344;2022-08-01T15:56:31;30.00;79.60
30280;DHT22;17097;50.916;5.344;2022-08-01T15:58:57;30.00;78.80
30280;DHT22;17097;50.916;5.344;2022-08-01T16:01:23;30.00;78.90
30280;DHT22;17097;50.916;5.344;2022-08-01T16:03:51;30.40;78.10
30280;DHT22;17097;50.916;5.344;2022-08-01T16:06:17;30.40;79.80
30280;DHT22;17097;50.916;5.344;2022-08-01T16:08:42;30.70;78.70
30280;DHT22;17097;50.916;5.344;2022-08-01T16:11:08;30.70;79.70
30280;DHT22;17097;50.916;5.344;2022-08-01T16:13:34;30.70;79.90
30280;DHT22;17097;50.916;5.344;2022-08-01T16:15:59;30.70;79.80
30280;DHT22;17097;50.916;5.344;2022-08-01T16:18:26;30.80;79.80